Time;durP1;ratioP1;P1;durP2;ratioP2;P2;SDS_P1;SDS_P2;PMS_P1;PMS_P2;Temp;Humidity;BMP_temperature;BMP_pressure;BME280_temperature;BME280_humidity;BME280_pressure;Samples;Min_cycle;Max_cycle;Signal;HPM_P1;HPM_P2
2023/03/16 03:11:54;;;;;;;46.70;18.90;;;;;;;-0.29;89.65;99391.62;106998;1302;544902;-54
2023/03/16 03:14:20;;;;;;;38.40;18.90;;;;;;;-0.30;89.56;99391.80;107362;1313;22417;-58
2023/03/16 03:16:45;;;;;;;45.50;18.20;;;;;;;-0.26;89.50;99396.41;107380;1295;22544;-45
2023/03/16 03:19:12;;;;;;;41.50;18.70;;;;;;;-0.22;89.34;99397.92;107392;1313;22308;-58
2023/03/16 13:08:47;;;;;;;13.80;5.10;;;;;;;9.55;39.97;99630.45;106372;1304;545132;-47
2023/03/16 13:11:16;;;;;;;16.30;7.60;;;;;;;9.58;40.80;99633.11;107157;1305;22283;-48
2023/03/16 13:14:07;;;;;;;11.40;4.80;;;;;;;11.31;38.28;99632.45;106704;1304;23487;-45
2023/03/16 13:16:37;;;;;;;7.60;3.00;;;;;;;13.33;34.98;99628.43;107053;1298;22385;-47
2023/03/16 13:19:21;;;;;;;9.60;3.50;;;;;;;14.90;32.96;99628.15;107120;1301;22212;-49
2023/03/16 13:21:46;;;;;;;10.80;3.00;;;;;;;14.62;32.87;99628.40;107402;1302;141744;-49
2023/03/16 13:24:14;;;;;;;12.10;3.00;;;;;;;15.26;31.61;99628.15;107656;1302;22428;-50
2023/03/16 13:26:42;;;;;;;16.20;3.30;;;;;;;16.93;30.78;99625.90;107665;1304;22219;-46
2023/03/16 13:29:28;;;;;;;11.30;3.80;;;;;;;18.68;28.57;99628.40;107243;1307;22341;-50
2023/03/16 13:31:56;;;;;;;12.20;3.10;;;;;;;19.29;27.61;99637.47;107659;1306;22384;-47
2023/03/16 13:34:28;;;;;;;9.00;3.20;;;;;;;19.36;26.82;99643.62;107695;1295;22234;-48
2023/03/16 13:36:56;;;;;;;16.50;5.50;;;;;;;17.36;28.11;99640.63;107661;1309;22458;-48
2023/03/16 13:39:26;;;;;;;13.20;3.60;;;;;;;15.45;30.95;99644.16;106788;1298;22648;-45
2023/03/16 13:42:08;;;;;;;9.50;3.10;;;;;;;15.62;30.05;99642.45;107504;1295;24003;-46
2023/03/16 13:44:39;;;;;;;11.60;3.80;;;;;;;15.46;29.89;99646.86;107325;1286;22248;-47
2023/03/16 13:47:06;;;;;;;9.70;4.70;;;;;;;13.72;31.12;99643.76;107390;1307;22264;-45
2023/03/16 13:49:32;;;;;;;8.50;4.00;;;;;;;12.54;33.00;99642.34;107384;1304;22282;-45
2023/03/16 13:51:57;;;;;;;7.10;2.70;;;;;;;11.81;33.68;99645.84;107667;1298;22561;-48
2023/03/16 13:54:26;;;;;;;8.90;3.60;;;;;;;11.83;33.90;99651.73;107662;1307;22353;-51
2023/03/16 13:56:56;;;;;;;8.20;3.30;;;;;;;12.64;32.42;99648.77;107020;1301;22355;-47
2023/03/16 13:59:22;;;;;;;9.10;2.60;;;;;;;12.21;33.03;99646.09;107592;1307;22320;-46
2023/03/16 14:01:57;;;;;;;7.50;4.30;;;;;;;11.44;34.29;99651.54;107612;1294;22574;-49
2023/03/16 14:04:25;;;;;;;10.10;4.60;;;;;;;10.99;35.23;99655.09;107558;1306;22418;-48
2023/03/16 14:07:02;;;;;;;13.00;3.80;;;;;;;10.69;35.55;99652.20;107518;1306;22439;-50
2023/03/16 14:09:33;;;;;;;7.60;4.10;;;;;;;10.15;36.65;99657.59;107714;1304;22241;-47
2023/03/16 14:11:59;;;;;;;11.70;5.10;;;;;;;10.93;36.46;99654.83;107673;1298;22469;-49
2023/03/16 14:14:27;;;;;;;7.80;3.50;;;;;;;12.02;34.22;99653.36;107686;1303;22569;-47
2023/03/16 14:16:54;;;;;;;7.40;3.70;;;;;;;12.31;32.84;99648.89;107581;1309;22658;-48
2023/03/16 14:19:31;;;;;;;7.20;3.70;;;;;;;11.70;32.79;99651.02;107670;1304;23111;-47
2023/03/16 14:22:02;;;;;;;9.00;3.20;;;;;;;11.10;33.82;99648.20;107027;1304;22493;-47
2023/03/16 14:24:34;;;;;;;9.90;3.10;;;;;;;10.44;35.19;99647.09;107453;1307;22582;-44
2023/03/16 14:27:26;;;;;;;6.10;3.10;;;;;;;10.13;36.05;99647.56;107279;1303;22587;-49
2023/03/16 14:30:23;;;;;;;9.20;3.30;;;;;;;9.59;37.64;99648.61;107484;1309;22233;-49
2023/03/16 14:32:57;;;;;;;9.80;3.30;;;;;;;9.12;39.14;99653.52;107582;1304;22303;-49
2023/03/16 14:35:26;;;;;;;6.30;2.40;;;;;;;8.70;40.00;99652.33;106593;1304;24467;-46
2023/03/16 14:37:55;;;;;;;6.10;2.50;;;;;;;8.36;40.18;99657.73;107630;1307;22571;-48
2023/03/16 14:40:30;;;;;;;10.40;3.00;;;;;;;8.07;40.81;99657.46;107650;1298;22963;-49
2023/03/16 14:43:02;;;;;;;8.50;3.10;;;;;;;7.58;42.16;99658.77;106802;1304;22584;-46
2023/03/16 14:45:36;;;;;;;15.30;3.50;;;;;;;7.35;42.55;99661.73;107604;1298;22298;-46
2023/03/16 14:48:09;;;;;;;8.40;2.90;;;;;;;7.07;45.79;99668.48;107361;1304;22312;-45
2023/03/16 14:50:36;;;;;;;6.60;2.90;;;;;;;7.10;46.81;99670.80;107436;1304;22390;-47
2023/03/16 14:53:03;;;;;;;16.90;4.70;;;;;;;7.11;47.81;99668.17;107343;1294;23033;-42
2023/03/16 14:55:28;;;;;;;9.70;3.30;;;;;;;7.16;48.66;99665.89;107648;1304;22198;-50
2023/03/16 14:57:54;;;;;;;18.60;3.70;;;;;;;7.24;47.59;99663.85;107282;1306;22516;-50
2023/03/16 15:00:21;;;;;;;11.00;3.50;;;;;;;7.20;47.49;99663.13;107510;1301;23001;-45
2023/03/16 15:02:57;;;;;;;8.30;3.20;;;;;;;6.92;48.42;99658.88;107668;1304;23420;-48
2023/03/16 15:05:29;;;;;;;11.10;3.10;;;;;;;6.61;50.38;99661.49;107659;1310;22245;-49
2023/03/16 15:07:55;;;;;;;10.90;2.80;;;;;;;6.59;49.76;99665.23;107367;1310;23346;-45
2023/03/16 15:10:25;;;;;;;13.80;3.50;;;;;;;6.53;48.73;99664.02;107596;1298;22535;-47
2023/03/16 15:13:02;;;;;;;8.60;3.10;;;;;;;6.53;48.57;99666.98;107408;1304;22592;-45
2023/03/16 15:15:28;;;;;;;5.30;3.10;;;;;;;6.47;48.92;99666.14;107552;1301;22514;-46
2023/03/16 15:17:54;;;;;;;11.30;4.10;;;;;;;6.47;48.80;99664.20;107648;1307;22450;-46
2023/03/16 15:20:24;;;;;;;8.20;3.00;;;;;;;6.42;48.68;99675.52;107686;1307;22242;-48
2023/03/16 15:22:51;;;;;;;7.60;2.70;;;;;;;6.28;49.40;99675.09;107649;1307;22367;-46
2023/03/16 15:25:38;;;;;;;8.40;3.00;;;;;;;6.19;49.17;99684.44;107675;1301;22352;-48
2023/03/16 15:28:20;;;;;;;9.70;3.80;;;;;;;6.14;48.90;99687.35;107406;1304;23478;-48
2023/03/16 15:30:48;;;;;;;5.10;2.70;;;;;;;5.96;49.61;99690.33;107297;1306;22276;-47
2023/03/16 15:33:14;;;;;;;7.20;2.70;;;;;;;5.80;50.08;99688.02;107672;1303;23264;-47
2023/03/16 15:35:40;;;;;;;5.80;2.70;;;;;;;5.60;51.20;99686.31;107648;1307;22544;-47
2023/03/16 15:38:12;;;;;;;6.80;2.50;;;;;;;5.58;51.34;99688.46;107670;1296;22486;-47
2023/03/16 15:40:40;;;;;;;9.00;3.00;;;;;;;5.55;51.34;99694.64;107625;1304;22267;-49
2023/03/16 15:43:15;;;;;;;11.90;3.10;;;;;;;5.44;52.03;99691.31;107656;1298;23342;-49
2023/03/16 15:45:42;;;;;;;9.10;3.10;;;;;;;5.39;51.96;99693.15;107635;1298;22260;-49
2023/03/16 15:48:08;;;;;;;9.80;2.70;;;;;;;5.39;51.65;99693.17;107648;1301;22309;-47
2023/03/16 15:50:34;;;;;;;7.60;2.90;;;;;;;5.30;52.41;99696.71;107650;1310;22314;-47
2023/03/16 15:53:06;;;;;;;7.00;2.50;;;;;;;5.23;53.12;99699.33;106713;1298;23102;-47
2023/03/16 15:55:42;;;;;;;10.90;3.00;;;;;;;5.25;52.60;99702.59;107020;1310;23202;-46
2023/03/16 15:58:19;;;;;;;7.30;2.70;;;;;;;5.16;52.99;99707.52;107227;1297;23076;-48
2023/03/16 16:00:47;;;;;;;4.30;2.40;;;;;;;5.13;52.40;99706.56;107619;1294;22213;-48
2023/03/16 16:03:13;;;;;;;8.70;2.40;;;;;;;5.06;52.57;99705.70;107604;1295;22844;-49
2023/03/16 16:05:38;;;;;;;4.90;2.70;;;;;;;5.06;52.43;99715.95;107667;1291;23048;-51
2023/03/16 16:08:04;;;;;;;8.20;2.80;;;;;;;4.95;52.95;99717.62;107633;1310;22313;-47
2023/03/16 16:10:31;;;;;;;8.70;3.20;;;;;;;4.84;54.17;99717.72;107659;1303;23162;-48
2023/03/16 16:12:56;;;;;;;5.80;2.70;;;;;;;4.81;54.44;99721.27;107686;1310;22477;-46
2023/03/16 16:15:28;;;;;;;4.30;2.70;;;;;;;4.80;54.37;99723.04;107587;1301;22685;-48
2023/03/16 16:17:54;;;;;;;6.70;2.60;;;;;;;4.74;54.23;99730.13;107641;1304;22440;-48
2023/03/16 16:20:26;;;;;;;3.80;2.20;;;;;;;4.70;53.81;99728.32;107668;1307;22481;-50
2023/03/16 16:22:52;;;;;;;3.10;1.50;;;;;;;4.66;52.79;99727.38;107637;1310;22355;-48
2023/03/16 16:25:22;;;;;;;5.00;1.20;;;;;;;4.59;52.21;99725.45;107111;1297;22609;-48
2023/03/16 16:27:47;;;;;;;2.50;1.70;;;;;;;4.52;52.38;99733.27;106998;1307;22570;-49
2023/03/16 16:30:19;;;;;;;4.50;1.60;;;;;;;4.48;52.58;99730.59;107248;1298;22557;-46
2023/03/16 16:32:44;;;;;;;5.20;1.60;;;;;;;4.50;52.41;99730.53;107371;1304;23261;-47
2023/03/16 16:35:15;;;;;;;4.00;1.90;;;;;;;4.42;52.98;99739.41;107500;1298;22577;-47
2023/03/16 16:37:43;;;;;;;2.10;1.60;;;;;;;4.36;53.56;99748.05;107181;1295;23730;-47
2023/03/16 16:40:16;;;;;;;6.10;2.00;;;;;;;4.33;53.55;99748.45;107540;1297;22992;-50
2023/03/16 16:42:42;;;;;;;3.90;1.70;;;;;;;4.34;53.60;99747.91;107470;1304;23239;-45
2023/03/16 16:45:15;;;;;;;6.90;1.90;;;;;;;4.31;53.79;99750.74;107078;1298;22426;-46
2023/03/16 16:47:40;;;;;;;4.80;1.90;;;;;;;4.32;53.48;99750.20;107364;1297;22566;-47
2023/03/16 16:50:35;;;;;;;5.40;2.20;;;;;;;4.25;53.28;99751.40;107021;1309;22239;-48
2023/03/16 16:53:00;;;;;;;4.80;1.90;;;;;;;4.18;53.96;99754.17;106902;1309;22404;-46
2023/03/16 16:55:26;;;;;;;5.70;2.10;;;;;;;4.12;54.37;99753.94;106906;1317;23231;-47
2023/03/16 16:57:53;;;;;;;5.10;2.30;;;;;;;4.11;54.85;99750.50;106799;1297;22319;-50
2023/03/16 17:00:24;;;;;;;13.40;3.00;;;;;;;4.11;55.03;99750.84;106855;1315;23127;-50
2023/03/16 17:02:52;;;;;;;9.80;2.70;;;;;;;4.08;55.62;99751.94;106907;1316;22383;-48
2023/03/16 17:05:26;;;;;;;3.50;2.10;;;;;;;4.12;55.23;99753.42;106191;1317;22562;-45
2023/03/16 17:07:52;;;;;;;12.50;3.20;;;;;;;4.09;55.10;99756.09;106313;1309;22345;-49
2023/03/16 17:10:26;;;;;;;18.80;10.70;;;;;;;4.08;55.29;99755.77;106435;1310;22936;-50
2023/03/16 17:12:54;;;;;;;10.90;5.20;;;;;;;4.03;56.04;99758.83;106457;1317;22336;-47
2023/03/16 17:15:27;;;;;;;10.40;3.70;;;;;;;3.95;56.48;99757.07;106896;1317;22304;-48
2023/03/16 17:18:09;;;;;;;7.40;4.30;;;;;;;3.96;55.97;99756.88;106347;1304;24254;-49
2023/03/16 17:20:34;;;;;;;10.50;4.30;;;;;;;3.97;56.96;99759.81;106582;1300;27824;-48
2023/03/16 17:22:59;;;;;;;10.70;4.40;;;;;;;3.96;56.09;99759.31;106061;1317;22257;-47
2023/03/16 17:25:26;;;;;;;14.90;3.90;;;;;;;3.88;57.29;99756.18;106913;1317;22253;-48
2023/03/16 17:27:55;;;;;;;11.10;4.40;;;;;;;3.86;57.00;99758.48;106363;1309;22599;-49
2023/03/16 17:30:28;;;;;;;12.10;3.80;;;;;;;3.85;56.98;99758.48;107290;1310;22392;-47
2023/03/16 17:32:59;;;;;;;4.80;3.10;;;;;;;3.86;56.97;99765.07;107126;1310;23383;-47
2023/03/16 17:35:25;;;;;;;5.90;3.10;;;;;;;3.82;56.70;99770.53;107432;1309;22239;-49
2023/03/16 17:37:51;;;;;;;7.70;3.30;;;;;;;3.78;56.86;99770.09;107244;1309;22582;-49
2023/03/16 17:40:19;;;;;;;10.90;3.40;;;;;;;3.75;56.96;99769.98;107094;1310;23092;-51
2023/03/16 17:42:46;;;;;;;8.40;3.40;;;;;;;3.72;57.37;99770.89;107077;1310;22594;-48
2023/03/16 17:45:23;;;;;;;10.90;4.00;;;;;;;3.70;57.16;99771.63;107035;1309;23162;-50
2023/03/16 17:47:51;;;;;;;21.10;4.60;;;;;;;3.67;57.67;99774.63;107633;1306;22398;-47
2023/03/16 17:50:28;;;;;;;11.80;4.20;;;;;;;3.66;57.20;99774.48;107647;1310;22456;-48
2023/03/16 17:52:54;;;;;;;11.10;3.90;;;;;;;3.63;57.72;99773.85;107631;1304;22237;-45
2023/03/16 17:55:23;;;;;;;16.90;4.80;;;;;;;3.64;57.19;99774.36;107467;1310;22168;-48
2023/03/16 17:57:51;;;;;;;13.90;5.50;;;;;;;3.60;57.97;99772.35;107635;1309;23080;-50
2023/03/16 18:00:45;;;;;;;14.20;5.70;;;;;;;3.59;57.47;99771.31;107658;1310;22544;-49
2023/03/16 18:03:13;;;;;;;14.40;6.30;;;;;;;3.56;58.01;99772.09;107605;1304;22351;-48
2023/03/16 18:05:39;;;;;;;16.50;7.60;;;;;;;3.56;58.61;99775.72;107639;1309;22223;-49
2023/03/16 18:08:27;;;;;;;24.20;8.70;;;;;;;3.58;58.89;99780.35;107656;1302;22319;-48
2023/03/16 18:10:58;;;;;;;21.90;9.20;;;;;;;3.59;60.16;99780.50;107638;1310;22191;-51
2023/03/16 18:13:42;;;;;;;19.30;8.70;;;;;;;3.59;58.76;99784.84;107677;1307;22261;-48
2023/03/16 18:16:18;;;;;;;25.30;12.10;;;;;;;3.62;58.99;99784.43;107669;1309;22230;-48
2023/03/16 18:18:45;;;;;;;23.10;9.90;;;;;;;3.61;60.44;99788.95;107658;1309;22389;-50
2023/03/16 18:21:18;;;;;;;27.50;9.90;;;;;;;3.60;61.06;99790.36;107642;1310;23023;-49
2023/03/16 18:23:44;;;;;;;26.00;9.50;;;;;;;3.60;59.58;99795.92;107654;1307;22232;-49
2023/03/16 18:26:10;;;;;;;26.50;10.50;;;;;;;3.57;58.60;99794.58;107685;1310;22299;-49
2023/03/16 18:28:35;;;;;;;25.20;11.10;;;;;;;3.55;58.74;99796.88;107648;1309;22443;-51
2023/03/16 18:31:03;;;;;;;33.80;13.90;;;;;;;3.54;58.67;99799.85;107651;1310;22229;-46
2023/03/16 18:33:31;;;;;;;40.70;14.20;;;;;;;3.52;58.80;99801.80;107680;1310;22466;-45
2023/03/16 18:35:57;;;;;;;;;;;;;;;3.51;59.09;99803.88;107685;1310;22532;-43
2023/03/16 18:38:33;;;;;;;29.90;13.00;;;;;;;3.46;58.83;99803.27;107660;1309;22237;-44
2023/03/16 18:41:01;;;;;;;57.70;16.30;;;;;;;3.45;59.16;99800.52;107695;1310;22395;-44
2023/03/16 18:43:26;;;;;;;;;;;;;;;3.44;58.86;99801.92;107686;1310;22455;-44
2023/03/16 18:45:52;;;;;;;50.70;18.20;;;;;;;3.38;58.95;99802.22;107686;1309;22458;-44
2023/03/16 18:48:28;;;;;;;57.60;17.70;;;;;;;3.36;59.33;99805.54;107676;1309;22227;-44
2023/03/16 18:50:54;;;;;;;50.30;16.30;;;;;;;3.34;59.00;99806.79;107658;1310;22235;-44
2023/03/16 18:53:21;;;;;;;45.70;16.20;;;;;;;3.34;58.66;99809.23;107690;1309;22255;-44
2023/03/16 18:55:47;;;;;;;44.70;14.40;;;;;;;3.29;59.05;99810.69;107659;1309;22248;-44
2023/03/16 18:58:22;;;;;;;31.70;12.80;;;;;;;3.28;58.64;99810.88;107687;1310;22230;-45
2023/03/16 19:00:57;;;;;;;23.90;10.00;;;;;;;3.25;58.75;99810.42;107493;1310;22137;-44
2023/03/16 19:03:26;;;;;;;26.30;10.50;;;;;;;3.26;58.62;99809.54;107682;1309;22973;-45
2023/03/16 19:05:53;;;;;;;22.60;7.50;;;;;;;3.24;58.52;99808.18;107708;1310;22230;-44
2023/03/16 19:08:19;;;;;;;18.70;7.90;;;;;;;3.18;58.53;99808.45;107674;1309;22247;-43
2023/03/16 19:10:50;;;;;;;18.20;6.70;;;;;;;3.17;58.77;99805.00;107710;1310;22241;-43
2023/03/16 19:13:21;;;;;;;22.50;9.10;;;;;;;3.21;58.86;99807.35;107708;1309;22409;-43
2023/03/16 19:15:48;;;;;;;21.20;8.20;;;;;;;3.23;58.43;99814.42;107679;1310;22260;-43
2023/03/16 19:18:14;;;;;;;;;;;;;;;3.23;58.26;99810.43;107675;1309;22433;-44
2023/03/16 19:20:41;;;;;;;23.30;8.70;;;;;;;3.24;58.17;99815.96;107664;1309;22222;-44
2023/03/16 19:23:15;;;;;;;;;;;;;;;3.21;58.62;99812.03;107677;1309;22434;-45
2023/03/16 19:25:42;;;;;;;24.90;12.40;;;;;;;3.23;58.87;99811.66;107668;1310;22997;-44
2023/03/16 19:28:14;;;;;;;27.00;9.70;;;;;;;3.20;60.93;99816.55;107702;1309;22528;-44
2023/03/16 19:30:40;;;;;;;22.80;8.30;;;;;;;3.16;61.67;99820.61;107671;1310;22416;-44
2023/03/16 19:33:25;;;;;;;30.90;8.10;;;;;;;3.12;61.06;99820.34;107668;1309;22226;-44
2023/03/16 19:35:52;;;;;;;22.70;7.50;;;;;;;3.04;62.13;99825.99;107689;1309;23279;-44
2023/03/16 19:38:18;;;;;;;29.80;8.90;;;;;;;2.98;62.91;99829.90;107675;1310;22851;-44
2023/03/16 19:40:44;;;;;;;25.50;10.00;;;;;;;2.93;62.72;99829.63;107659;1309;22241;-44
2023/03/16 19:43:18;;;;;;;27.00;9.70;;;;;;;2.90;61.82;99831.23;107687;1310;22222;-44
2023/03/16 19:45:44;;;;;;;24.30;9.90;;;;;;;2.84;61.65;99833.06;107662;1310;22249;-45
2023/03/16 19:48:21;;;;;;;31.70;11.20;;;;;;;2.80;61.70;99832.25;107698;1310;23575;-44
2023/03/16 19:50:48;;;;;;;31.20;11.00;;;;;;;2.77;63.31;99831.79;107678;1310;22279;-43
2023/03/16 19:53:17;;;;;;;24.50;10.80;;;;;;;2.70;64.15;99829.30;107720;1310;22473;-45
2023/03/16 19:55:46;;;;;;;30.80;11.20;;;;;;;2.65;65.17;99828.48;107676;1310;22243;-44
2023/03/16 19:58:26;;;;;;;50.60;14.60;;;;;;;2.61;65.63;99824.73;107685;1310;22202;-44
2023/03/16 20:00:52;;;;;;;87.50;39.40;;;;;;;2.57;65.13;99830.69;107702;1310;22959;-43
2023/03/16 20:03:17;;;;;;;84.20;37.20;;;;;;;2.49;64.23;99828.70;107694;1309;22324;-43
2023/03/16 20:05:42;;;;;;;43.60;22.10;;;;;;;2.47;63.88;99828.23;107684;1310;22385;-44
2023/03/16 20:08:23;;;;;;;40.00;18.80;;;;;;;2.47;64.63;99827.53;107657;1309;22225;-43
2023/03/16 20:10:49;;;;;;;40.60;19.00;;;;;;;2.49;65.54;99825.43;107398;1310;23392;-44
2023/03/16 20:13:15;;;;;;;42.20;19.70;;;;;;;2.45;66.89;99825.83;107660;1310;22416;-44
2023/03/16 20:15:41;;;;;;;42.60;21.20;;;;;;;2.39;67.19;99824.87;107699;1310;22257;-46
2023/03/16 20:18:13;;;;;;;48.60;22.70;;;;;;;2.35;66.60;99823.54;107684;1310;22969;-45
2023/03/16 20:20:39;;;;;;;46.30;21.10;;;;;;;2.33;67.07;99829.09;107675;1310;22113;-45
2023/03/16 20:23:23;;;;;;;39.10;19.50;;;;;;;2.29;66.73;99831.92;107683;1310;22390;-45
2023/03/16 20:25:50;;;;;;;60.40;19.30;;;;;;;2.25;66.41;99834.22;107691;1310;22395;-45
2023/03/16 20:28:19;;;;;;;45.40;18.90;;;;;;;2.25;67.22;99834.56;107678;1309;22270;-44
2023/03/16 20:30:46;;;;;;;48.30;21.00;;;;;;;2.23;67.20;99835.61;107678;1310;22528;-43
2023/03/16 20:33:20;;;;;;;51.20;21.80;;;;;;;2.19;67.27;99834.29;107707;1309;22209;-45
2023/03/16 20:35:48;;;;;;;52.00;20.00;;;;;;;2.18;67.32;99837.27;107692;1310;22592;-44
2023/03/16 20:38:14;;;;;;;52.50;19.60;;;;;;;2.16;66.59;99837.09;107696;1310;22412;-44
2023/03/16 20:40:41;;;;;;;46.20;21.70;;;;;;;2.18;67.87;99833.79;107677;1309;22872;-44
2023/03/16 20:43:32;;;;;;;55.70;21.30;;;;;;;2.14;68.28;99840.76;107694;1310;22363;-43
2023/03/16 20:46:00;;;;;;;54.30;20.80;;;;;;;2.08;68.01;99839.96;107643;1310;22244;-45
2023/03/16 20:48:26;;;;;;;51.20;21.50;;;;;;;2.08;68.25;99838.73;107648;1310;22402;-44
2023/03/16 20:50:53;;;;;;;53.10;21.40;;;;;;;2.08;69.18;99840.65;107690;1310;23303;-45
2023/03/16 20:53:20;;;;;;;55.60;21.50;;;;;;;2.04;69.89;99841.23;107688;1310;22401;-45
2023/03/16 20:55:46;;;;;;;49.70;20.90;;;;;;;1.99;70.30;99843.36;107677;1310;22213;-44
2023/03/16 20:58:29;;;;;;;49.20;21.10;;;;;;;1.97;70.58;99844.26;107688;1310;22189;-43
2023/03/16 21:00:56;;;;;;;52.30;21.70;;;;;;;1.96;70.60;99845.29;107695;1310;22234;-44
2023/03/16 21:03:25;;;;;;;52.50;22.20;;;;;;;1.93;70.38;99843.94;107679;1310;22245;-43
2023/03/16 21:05:52;;;;;;;51.20;20.40;;;;;;;1.91;70.47;99843.45;107699;1310;22320;-44
2023/03/16 21:08:18;;;;;;;67.30;26.30;;;;;;;1.86;70.40;99844.02;107690;1309;22691;-44
2023/03/16 21:10:46;;;;;;;63.60;24.60;;;;;;;1.85;70.03;99841.44;107408;1310;23193;-43
2023/03/16 21:13:24;;;;;;;44.90;21.00;;;;;;;1.86;70.02;99839.86;107698;1310;22213;-45
2023/03/16 21:15:51;;;;;;;53.50;22.60;;;;;;;1.87;70.08;99838.83;107690;1310;23180;-43
2023/03/16 21:18:19;;;;;;;46.30;21.30;;;;;;;1.89;71.14;99837.41;107659;1310;22269;-45
2023/03/16 21:20:46;;;;;;;52.90;21.90;;;;;;;1.92;71.30;99837.73;107680;1309;22228;-44
2023/03/16 21:23:15;;;;;;;51.70;20.00;;;;;;;1.92;70.77;99839.12;107695;1310;22338;-44
2023/03/16 21:25:47;;;;;;;43.10;20.90;;;;;;;1.91;70.67;99839.81;107700;1310;22244;-44
2023/03/16 21:28:13;;;;;;;55.90;23.20;;;;;;;1.88;70.54;99840.38;107673;1310;22260;-45
2023/03/16 21:30:43;;;;;;;48.80;22.40;;;;;;;1.89;71.24;99839.14;107686;1310;23240;-44
2023/03/16 21:33:17;;;;;;;44.20;20.80;;;;;;;1.85;70.94;99838.66;107710;1310;22858;-45
2023/03/16 21:35:45;;;;;;;52.90;19.80;;;;;;;1.86;69.44;99842.98;107716;1310;23105;-45
2023/03/16 21:38:13;;;;;;;43.50;19.10;;;;;;;1.87;68.86;99843.66;107671;1309;22241;-44
2023/03/16 21:40:39;;;;;;;54.90;20.20;;;;;;;1.80;69.28;99845.98;107690;1309;23131;-44
2023/03/16 21:43:05;;;;;;;61.20;21.40;;;;;;;1.75;69.50;99846.04;107688;1310;22287;-44
2023/03/16 21:45:30;;;;;;;61.30;23.10;;;;;;;1.70;69.87;99839.34;107717;1310;22254;-44
2023/03/16 21:47:57;;;;;;;55.60;24.70;;;;;;;1.72;69.30;99837.78;107696;1309;22418;-44
2023/03/16 21:50:27;;;;;;;58.30;23.80;;;;;;;1.71;69.55;99835.36;107697;1309;22232;-44
2023/03/16 21:52:52;;;;;;;58.80;25.50;;;;;;;1.66;70.97;99835.76;107701;1309;22215;-43
2023/03/16 21:55:21;;;;;;;65.70;28.20;;;;;;;1.62;70.85;99836.48;107661;1310;22266;-46
2023/03/16 21:57:47;;;;;;;74.90;32.30;;;;;;;1.60;71.49;99835.82;107703;1309;22232;-43
2023/03/16 22:00:20;;;;;;;81.90;37.30;;;;;;;1.60;71.43;99836.33;107683;1309;22386;-43
2023/03/16 22:02:46;;;;;;;82.40;39.40;;;;;;;1.59;71.99;99834.11;107700;1309;22302;-44
2023/03/16 22:05:27;;;;;;;91.20;40.40;;;;;;;1.57;71.83;99833.95;107661;1310;23029;-43
2023/03/16 22:07:52;;;;;;;90.90;40.30;;;;;;;1.55;72.11;99833.79;107689;1310;22386;-43
2023/03/16 22:10:19;;;;;;;93.30;41.30;;;;;;;1.53;72.69;99832.60;107664;1310;22323;-44
2023/03/16 22:12:44;;;;;;;94.90;42.00;;;;;;;1.53;72.81;99831.05;107673;1310;22352;-44
2023/03/16 22:15:09;;;;;;;124.10;52.60;;;;;;;1.54;72.20;99829.83;107681;1310;22242;-44
2023/03/16 22:17:35;;;;;;;110.50;49.80;;;;;;;1.56;72.60;99833.09;107677;1310;23538;-43
2023/03/16 22:20:02;;;;;;;125.30;56.50;;;;;;;1.56;72.59;99832.05;107694;1310;22224;-43
2023/03/16 22:22:30;;;;;;;130.10;55.20;;;;;;;1.56;71.63;99832.58;107696;1310;22487;-43
2023/03/16 22:24:56;;;;;;;136.30;57.50;;;;;;;1.58;72.35;99832.55;107688;1310;22230;-43
2023/03/16 22:27:24;;;;;;;132.80;61.20;;;;;;;1.60;72.40;99835.65;107675;1310;22229;-43
2023/03/16 22:29:50;;;;;;;135.00;60.50;;;;;;;1.59;72.50;99836.01;107668;1310;22233;-44
2023/03/16 22:32:19;;;;;;;132.90;56.40;;;;;;;1.58;72.63;99837.58;107684;1310;22411;-43
2023/03/16 22:34:48;;;;;;;148.60;58.60;;;;;;;1.59;71.98;99837.05;107674;1309;22398;-44
2023/03/16 22:37:20;;;;;;;137.40;59.20;;;;;;;1.58;71.47;99835.86;107691;1309;22388;-43
2023/03/16 22:39:46;;;;;;;146.90;63.30;;;;;;;1.58;71.23;99834.27;107665;1310;22267;-44
2023/03/16 22:42:18;;;;;;;139.60;64.00;;;;;;;1.60;71.66;99833.75;107403;1310;22200;-44
2023/03/16 22:44:43;;;;;;;163.70;73.00;;;;;;;1.58;72.16;99833.42;107698;1310;22338;-44
2023/03/16 22:47:20;;;;;;;163.10;73.50;;;;;;;1.55;71.57;99831.55;107649;1310;22892;-44
2023/03/16 22:49:45;;;;;;;;;;;;;;;1.54;72.60;99831.73;107701;1310;22605;-44
2023/03/16 22:52:11;;;;;;;155.60;72.70;;;;;;;1.50;72.58;99830.04;107679;1310;22232;-44
2023/03/16 22:54:37;;;;;;;156.60;73.20;;;;;;;1.47;71.54;99827.30;107704;1309;22299;-43
2023/03/16 22:57:03;;;;;;;152.40;73.40;;;;;;;1.47;71.91;99828.34;107680;1309;22219;-43
2023/03/16 22:59:29;;;;;;;150.40;72.70;;;;;;;1.46;72.73;99833.02;107686;1310;22208;-43
2023/03/16 23:01:56;;;;;;;155.10;70.60;;;;;;;1.43;72.25;99836.15;107680;1309;22218;-45
2023/03/16 23:04:24;;;;;;;161.20;70.90;;;;;;;1.39;72.14;99833.60;107673;1309;23090;-44
2023/03/16 23:06:53;;;;;;;159.40;71.20;;;;;;;1.35;71.99;99831.90;107681;1309;23049;-43
2023/03/16 23:09:20;;;;;;;164.30;71.20;;;;;;;1.34;72.12;99830.52;107686;1310;22235;-44
2023/03/16 23:11:48;;;;;;;156.10;71.90;;;;;;;1.35;72.49;99835.52;107680;1310;22347;-44
2023/03/16 23:14:13;;;;;;;;;;;;;;;1.35;73.14;99837.27;107706;1310;22446;-44
2023/03/16 23:16:40;;;;;;;156.20;69.00;;;;;;;1.33;73.65;99838.15;107663;1310;23390;-44
2023/03/16 23:19:32;;;;;;;152.20;65.80;;;;;;;1.32;73.88;99841.79;107713;1310;22260;-44
2023/03/16 23:22:00;;;;;;;142.30;64.10;;;;;;;1.30;73.12;99848.20;107654;1310;22302;-43
2023/03/16 23:24:26;;;;;;;153.60;67.40;;;;;;;1.26;72.89;99852.02;107695;1309;22200;-43
2023/03/16 23:26:52;;;;;;;141.20;63.30;;;;;;;1.26;72.93;99858.42;107678;1310;23006;-43
2023/03/16 23:29:19;;;;;;;145.90;64.30;;;;;;;1.26;73.99;99861.02;107701;1310;22490;-44
2023/03/16 23:31:45;;;;;;;137.20;63.40;;;;;;;1.23;74.45;99863.46;107689;1310;23152;-43
2023/03/16 23:34:16;;;;;;;136.80;62.90;;;;;;;1.21;74.02;99865.71;107664;1310;22224;-43
2023/03/16 23:36:42;;;;;;;138.50;59.40;;;;;;;1.20;73.99;99867.27;107668;1310;22288;-47
2023/03/16 23:39:09;;;;;;;119.70;55.00;;;;;;;1.15;73.36;99871.27;107673;1309;22398;-43
2023/03/16 23:41:36;;;;;;;122.00;54.70;;;;;;;1.16;73.05;99877.67;107453;1310;22250;-43
2023/03/16 23:44:06;;;;;;;;;;;;;;;1.16;73.52;99882.50;107681;1309;23491;-43
2023/03/16 23:46:33;;;;;;;117.40;53.60;;;;;;;1.14;74.29;99885.29;107664;1309;22418;-43
2023/03/16 23:49:02;;;;;;;137.10;57.20;;;;;;;1.11;73.86;99880.98;107663;1310;22273;-44
2023/03/16 23:51:32;;;;;;;146.60;64.80;;;;;;;1.09;73.52;99886.18;107472;1310;22228;-43
2023/03/16 23:53:57;;;;;;;147.70;66.40;;;;;;;1.02;73.66;99890.02;107700;1310;22264;-47
2023/03/16 23:56:25;;;;;;;155.70;68.90;;;;;;;1.00;73.63;99888.67;107681;1310;23002;-43
2023/03/16 23:58:50;;;;;;;152.30;64.10;;;;;;;0.97;73.77;99891.79;107702;1309;22936;-42
